createdAt,value
2019-04-22T00:00:51.426Z,8.89
2019-04-22T00:06:05.559Z,9.00
2019-04-22T00:11:19.658Z,9.04
2019-04-22T00:16:10.486Z,8.98
2019-04-22T00:21:12.947Z,8.91
2019-04-22T00:26:12.750Z,8.89
2019-04-22T00:31:11.834Z,8.94
2019-04-22T00:36:08.980Z,8.92
2019-04-22T00:41:05.835Z,8.74
2019-04-22T00:46:02.121Z,8.78
2019-04-22T00:51:08.858Z,8.76
2019-04-22T00:56:22.153Z,8.71
2019-04-22T01:01:14.292Z,8.69
2019-04-22T01:06:13.055Z,8.77
2019-04-22T01:11:13.446Z,8.79
2019-04-22T01:16:13.984Z,8.81
2019-04-22T01:26:00.783Z,8.64
2019-04-22T01:30:51.664Z,8.65
2019-04-22T01:36:04.648Z,8.68
2019-04-22T01:41:11.134Z,8.71
2019-04-22T01:46:08.014Z,8.81
2019-04-22T01:51:01.333Z,8.83
2019-04-22T01:56:06.151Z,8.83
2019-04-22T02:00:59.532Z,8.78
2019-04-22T02:05:59.510Z,8.82
2019-04-22T02:11:02.338Z,8.95
2019-04-22T02:16:01.941Z,7.99
2019-04-22T02:20:54.846Z,8.71
2019-04-22T02:46:23.338Z,8.62
2019-04-22T02:51:10.415Z,8.45
2019-04-22T02:56:13.346Z,8.43
2019-04-22T03:01:05.993Z,8.37
2019-04-22T03:06:24.696Z,8.20
2019-04-22T03:11:07.616Z,8.14
2019-04-22T03:21:14.666Z,8.03
2019-04-22T03:31:54.411Z,7.96
2019-04-22T03:41:39.346Z,7.74
2019-04-22T03:46:30.359Z,7.63
2019-04-22T03:56:57.326Z,7.68
2019-04-22T04:01:31.910Z,7.64
2019-04-22T04:06:17.377Z,7.70
2019-04-22T04:11:30.395Z,7.83
2019-04-22T04:16:21.472Z,8.01
2019-04-22T04:21:25.994Z,8.17
2019-04-22T04:26:33.502Z,8.16
2019-04-22T04:31:25.273Z,8.32
2019-04-22T04:36:14.611Z,8.64
2019-04-22T04:41:17.247Z,8.28
2019-04-22T04:46:14.138Z,8.10
2019-04-22T04:51:16.534Z,8.52
2019-04-22T04:56:10.872Z,8.81
2019-04-22T05:16:17.695Z,8.92
2019-04-22T05:21:11.131Z,9.20
2019-04-22T05:25:57.916Z,9.56
2019-04-22T05:30:56.368Z,9.65
2019-04-22T05:35:56.338Z,9.94
2019-04-22T05:40:49.877Z,10.32
2019-04-22T05:45:54.783Z,10.75
2019-04-22T05:50:54.580Z,11.15
2019-04-22T05:55:56.617Z,11.08
2019-04-22T06:01:30.714Z,11.75
2019-04-22T06:06:06.395Z,12.46
2019-04-22T06:11:10.141Z,13.56
2019-04-22T06:16:02.160Z,13.69
2019-04-22T06:21:09.367Z,13.90
2019-04-22T06:26:10.777Z,14.01
2019-04-22T06:36:02.055Z,15.26
2019-04-22T06:41:06.653Z,14.56
2019-04-22T06:46:06.386Z,15.53
2019-04-22T06:51:17.860Z,15.17
2019-04-22T07:00:52.077Z,17.08
2019-04-22T07:05:59.938Z,17.77
2019-04-22T07:20:57.919Z,18.68
2019-04-22T07:25:56.564Z,18.69
2019-04-22T07:30:54.637Z,18.13
2019-04-22T07:36:18.422Z,18.51
2019-04-22T07:40:50.156Z,18.51
2019-04-22T07:45:49.243Z,17.95
2019-04-22T07:55:47.520Z,19.06
2019-04-22T08:00:48.483Z,18.74
2019-04-22T08:15:48.591Z,19.56
2019-04-22T08:20:58.666Z,19.49
2019-04-22T08:25:42.875Z,19.88
2019-04-22T08:30:47.640Z,19.53
2019-04-22T08:36:00.493Z,18.87
2019-04-22T08:40:50.179Z,19.54
2019-04-22T08:45:56.939Z,19.13
2019-04-22T08:55:47.869Z,19.85
2019-04-22T09:00:44.203Z,19.75
2019-04-22T09:15:36.788Z,19.93
2019-04-22T09:20:40.713Z,19.06
2019-04-22T09:25:36.006Z,19.69
2019-04-22T09:30:40.043Z,19.77
2019-04-22T09:35:37.624Z,19.19
2019-04-22T09:40:34.633Z,19.05
2019-04-22T09:45:32.391Z,19.46
2019-04-22T09:50:40.453Z,19.49
2019-04-22T09:55:30.629Z,19.84
2019-04-22T10:00:39.414Z,19.90
2019-04-22T10:05:40.795Z,20.00
2019-04-22T10:10:34.849Z,20.26
2019-04-22T10:15:33.305Z,20.48
2019-04-22T10:20:31.436Z,19.59
2019-04-22T10:25:35.166Z,18.98
2019-04-22T10:30:43.988Z,19.19
2019-04-22T10:35:15.407Z,19.12
2019-04-22T10:40:13.678Z,18.96
2019-04-22T10:45:12.388Z,18.89
2019-04-22T10:50:10.360Z,19.29
2019-04-22T10:55:09.781Z,20.23
2019-04-22T11:00:09.263Z,20.58
2019-04-22T11:05:08.118Z,20.66
2019-04-22T11:10:20.628Z,21.05
2019-04-22T11:15:07.797Z,20.53
2019-04-22T11:20:06.275Z,21.42
2019-04-22T11:25:05.741Z,21.62
2019-04-22T11:30:05.823Z,21.29
2019-04-22T11:35:05.968Z,21.28
2019-04-22T11:40:16.580Z,21.00
2019-04-22T11:45:05.733Z,20.64
2019-04-22T11:50:10.291Z,20.79
2019-04-22T11:55:08.903Z,20.10
2019-04-22T12:00:10.639Z,20.27
2019-04-22T12:05:10.090Z,20.62
2019-04-22T12:10:17.735Z,21.33
2019-04-22T12:15:08.829Z,20.13
2019-04-22T12:20:10.589Z,19.88
2019-04-22T12:25:10.551Z,19.46
2019-04-22T12:30:14.772Z,19.59
2019-04-22T12:35:13.727Z,19.17
2019-04-22T12:40:13.042Z,19.14
2019-04-22T12:45:12.149Z,17.97
2019-04-22T12:50:21.516Z,18.25
2019-04-22T12:55:14.137Z,19.25
2019-04-22T13:00:13.678Z,18.01
2019-04-22T13:05:12.415Z,17.23
2019-04-22T13:10:11.689Z,16.82
2019-04-22T13:15:14.115Z,17.35
2019-04-22T13:20:16.043Z,17.79
2019-04-22T13:25:12.581Z,17.85
2019-04-22T13:30:14.390Z,17.85
2019-04-22T13:35:13.061Z,17.84
2019-04-22T13:40:12.806Z,17.57
2019-04-22T13:45:11.633Z,18.32
2019-04-22T13:50:49.440Z,17.85
2019-04-22T13:55:45.454Z,17.91
2019-04-22T14:00:22.569Z,18.33
2019-04-22T14:05:26.995Z,18.52
2019-04-22T14:10:24.854Z,18.92
2019-04-22T14:15:22.458Z,19.30
2019-04-22T14:20:20.713Z,18.73
2019-04-22T14:25:18.895Z,18.85
2019-04-22T14:30:16.793Z,19.03
2019-04-22T14:35:15.358Z,18.75
2019-04-22T14:40:15.997Z,18.53
2019-04-22T14:45:42.333Z,17.44
2019-04-22T14:50:35.226Z,17.19
2019-04-22T14:55:22.715Z,16.90
2019-04-22T15:00:18.076Z,16.32
2019-04-22T15:05:16.389Z,16.26
2019-04-22T15:10:15.641Z,16.24
2019-04-22T15:15:15.552Z,16.14
2019-04-22T15:20:21.531Z,16.07
2019-04-22T15:25:18.761Z,15.85
2019-04-22T15:30:17.173Z,16.03
2019-04-22T15:35:15.539Z,15.76
2019-04-22T15:40:13.140Z,15.84
2019-04-22T15:45:12.574Z,15.68
2019-04-22T15:50:12.115Z,15.19
2019-04-22T15:55:10.905Z,14.99
2019-04-22T16:00:22.530Z,14.88
2019-04-22T16:05:08.852Z,14.65
2019-04-22T16:10:07.839Z,14.47
2019-04-22T16:15:08.741Z,14.58
2019-04-22T16:20:06.998Z,14.38
2019-04-22T16:25:22.892Z,14.52
2019-04-22T16:30:21.509Z,14.42
2019-04-22T16:35:19.214Z,14.29
2019-04-22T16:40:16.808Z,14.36
2019-04-22T16:45:13.830Z,14.16
2019-04-22T16:50:11.749Z,14.12
2019-04-22T16:55:08.985Z,14.16
2019-04-22T17:00:11.200Z,14.10
2019-04-22T17:05:13.835Z,13.71
2019-04-22T17:10:10.891Z,13.63
2019-04-22T17:15:11.878Z,13.49
2019-04-22T17:20:07.430Z,13.27
2019-04-22T17:25:08.633Z,13.03
2019-04-22T17:30:08.518Z,13.14
2019-04-22T17:35:08.202Z,13.08
2019-04-22T17:40:24.424Z,12.94
2019-04-22T17:45:38.185Z,12.72
2019-04-22T17:50:37.941Z,12.75
2019-04-22T17:55:40.400Z,12.47
2019-04-22T18:00:29.805Z,12.40
2019-04-22T18:05:18.283Z,12.48
2019-04-22T18:10:36.121Z,12.42
2019-04-22T18:15:31.673Z,12.28
2019-04-22T18:20:30.550Z,12.28
2019-04-22T18:25:27.715Z,12.35
2019-04-22T18:30:26.590Z,12.17
2019-04-22T18:35:32.427Z,12.06
2019-04-22T18:40:31.042Z,12.06
2019-04-22T18:45:40.475Z,12.06
2019-04-22T18:50:37.074Z,11.92
2019-04-22T18:55:38.727Z,11.82
2019-04-22T19:00:39.714Z,11.96
2019-04-22T19:06:02.347Z,11.96
2019-04-22T19:11:02.503Z,11.84
2019-04-22T19:16:17.506Z,11.73
2019-04-22T19:21:01.229Z,11.85
2019-04-22T19:25:51.168Z,11.58
2019-04-22T19:31:02.695Z,11.67
2019-04-22T19:35:53.038Z,11.54
2019-04-22T19:41:00.647Z,11.55
2019-04-22T19:45:56.216Z,11.42
2019-04-22T19:51:00.119Z,11.46
2019-04-22T19:55:51.817Z,11.21
2019-04-22T20:00:46.344Z,11.27
2019-04-22T20:06:09.983Z,11.16
2019-04-22T20:11:15.128Z,11.07
2019-04-22T20:15:56.120Z,10.91
2019-04-22T20:21:07.474Z,10.82
2019-04-22T20:25:59.013Z,10.73
2019-04-22T20:31:03.289Z,10.72
2019-04-22T20:36:03.828Z,10.68
2019-04-22T20:40:58.099Z,10.65
2019-04-22T20:46:03.129Z,10.58
2019-04-22T20:50:58.222Z,10.48
2019-04-22T20:56:00.704Z,10.04
2019-04-22T21:00:46.556Z,10.38
2019-04-22T21:05:48.171Z,10.29
2019-04-22T21:10:46.682Z,10.24
2019-04-22T21:16:01.096Z,10.10
2019-04-22T21:20:59.208Z,9.95
2019-04-22T21:25:39.391Z,9.91
2019-04-22T21:30:51.042Z,9.93
2019-04-22T21:36:03.161Z,9.89
2019-04-22T21:40:44.090Z,9.76
2019-04-22T21:45:43.711Z,9.77
2019-04-22T21:55:50.826Z,9.42
2019-04-22T22:01:06.438Z,9.38
2019-04-22T22:05:47.223Z,9.06
2019-04-22T22:10:59.696Z,9.13
2019-04-22T22:15:54.939Z,8.93
2019-04-22T22:21:12.960Z,8.82
2019-04-22T22:25:47.976Z,8.80
2019-04-22T22:30:54.738Z,8.69
2019-04-22T22:35:45.757Z,8.67
2019-04-22T22:40:32.346Z,8.60
2019-04-22T22:45:37.435Z,8.65
2019-04-22T22:50:43.178Z,8.90
2019-04-22T22:55:47.686Z,8.95
2019-04-22T23:00:45.300Z,9.07
2019-04-22T23:05:50.611Z,8.98
2019-04-22T23:10:52.928Z,8.89
2019-04-22T23:15:39.244Z,8.79
2019-04-22T23:20:27.510Z,8.67
2019-04-22T23:25:47.718Z,8.71
2019-04-22T23:30:38.964Z,8.49
2019-04-22T23:35:48.242Z,8.45
2019-04-22T23:40:47.761Z,8.27
2019-04-22T23:45:52.901Z,8.28
2019-04-22T23:50:49.504Z,8.19
2019-04-22T23:55:53.141Z,8.22
